Golden, CO (80401)

7:46 AM MST on December 25, 2014 (GMT -0700)
Lookout Pointe | Change Station
CLOSE
Current Station
Personal Weather Station
Location: Golden, CO
Elevation: 5940 ft
Nearby Weather Stations
Active Advisory: Winter Storm Warning Active Notice: Public Information Statement

Elev 5940 ft 39.75 °N, 105.23 °W | Updated 5 seconds ago

Partly Cloudy
Partly Cloudy
35.7 °F
Feels Like 36 °F
N
1.0
Wind Variable Wind from SSE
Gusts 5.0 mph

Today
High -- | Low -- °F
--% Chance of Precip.
Yesterday
High -- | Low -- °F
Precip. -- in
7:20 AM 4:41 PM
Waxing Crescent, 17% visible
Pressure 29.38 in
Visibility 70.0 miles
Clouds Few 10000 ft
Windchill 36 °F
Dew Point 20 °F
Humidity 52%
Rainfall 0.00 in
Snow Depth Not available.
UV 0 out of 12
Pollen .10 out of 12
Air Quality Not available.
Flu Activity Not available.
METAR KBJC 251347Z 33004KT 70SM FEW100 M01/M08 A2938

More Conditions Fewer Conditions

Pressure 29.38 in
Visibility 70.0 miles
Clouds Few 10000 ft
Windchill 36 °F
Dew Point 20 °F
Humidity 52%
Rainfall 0.00 in
Snow Depth Not available.
UV 0 out of 12
Pollen .10 out of 12
Air Quality Not available.
Flu Activity Not available.
METAR KBJC 251347Z 33004KT 70SM FEW100 M01/M08 A2938

More Conditions Fewer Conditions

10-Day Weather Forecast

Almanac

Astronomy

Dec. 25, 2014 Rise Set
Actual Time
Civil Twilight
Nautical Twilight
Astronomical Twilight
Moon
Length of Visible Light
Length of Day
Tomorrow will be .
, % of the Moon is Illuminated

Today's Extremes

State Highs State Lows

Community

WunderPhotos

Upload Photos

1,780,283 photos uploaded!

WunderBlogs® & News

Nearby

Air Quality

  Air Quality AQ Index Pollutant
Not available.

Snow Depth

Station Depth Elevation

Earthquake Activity

City Distance Mag. Time & Date
Minimum magnitude displayed is 2.5.

Coastal Water Temperatures

Place Temperature

Nearby Weather Stations